メインページ
METAR-TAF:

METAR-TAF

空港 :

トロント, オンタリオ州, カナダ

トロント・ピアソン国際空港

緯度: 43-40N, 経度: 079-38W, 海抜: 173m

現時点の気象観測

当レポートは38分前の15:00(UTC)に作成
東/南東の風 8kt、からの間で変化する
気温 14°C
湿度 24%
気圧 1029 hPa
視程: 24.1km
高度25000ftの雲はほとんどない

METAR: CYYZ 231500Z 11008KT 090V170 15SM FEW250 14/M06 A3038 RMK CI1 SLP292

時間: 11:38 (15:38 UTC)

予報

当レポートは59分前の14:39(UTC)に作成
予報は23日の 15時(UTC)から 24日の 18時(UTC)まで有効
南東の風 8kt
視程: 10km
高度25000ftの雲はほとんどない
23日の 1900時(UTC)から
南/南東の風 12kt
視程: 10km
高度4000ftの雲はほとんどない
23日の 22時(UTC)から 23日の 24時(UTC)まで徐々に
東/北東の風 6kt
24日の 0400時(UTC)から
変向風 3kt
視程: 10km
高度5000ftの雲はほとんどない
高度28000ftの千切れ雲あり
24日の 1000時(UTC)から
の風 7kt
視程: 10km
高度4000ftの雲は散在している
高度16000ftの千切れ雲あり
24日の 1400時(UTC)から
南/南西の風 12kt
視程: 10km
高度5000ftの曇り
24日の 1700時(UTC)から
の風 12kt
視程: 10km
高度12000ftの曇り

TAF: CYYZ 231439Z 2315/2418 13008KT P6SM FEW250 FM231900 15012KT P6SM FEW040 BECMG 2322/2324 06006KT FM240400 VRB03KT P6SM FEW050 BKN280 FM241000 18007KT P6SM SCT040 BKN160 FM241400 20012KT P6SM OVC050 FM241700 18012KT P6SM OVC120 RMK NXT FCST BY 231800Z

4,000以上の空港の気象観測と天気予報(METAR報とTAF報)

利用可能な観測所は地図上に黄色い丸と赤い丸で示す。

丸の上にカーソルを重ねると観測所名を参照できる。

次にクリックすると気象観測と天気予報を参照できる。

マップの切り替え:黒色「×」印の緑ボタンをクリックして拡大、「-」印の緑ボタンをクリックして縮小、緑色の三角印をクリックして隣りの地図に切り替え


METAR-TAF: